Time;durP1;ratioP1;P1;durP2;ratioP2;P2;SDS_P1;SDS_P2;PMS_P1;PMS_P2;Temp;Humidity;BMP_temperature;BMP_pressure;BME280_temperature;BME280_humidity;BME280_pressure;Samples;Min_cycle;Max_cycle;Signal;HPM_P1;HPM_P2
2022/03/01 00:01:37;;;;;;;13.82;5.47;;;3.90;91.80;;;;;;5031652;28;20052;-59
2022/03/01 00:04:41;;;;;;;19.63;10.35;;;3.90;91.10;;;;;;5032226;28;20045;-59
2022/03/01 00:07:45;;;;;;;10.75;4.80;;;3.90;91.60;;;;;;5032098;28;20392;-58
2022/03/01 00:10:49;;;;;;;8.98;5.07;;;3.80;91.20;;;;;;5031705;28;20053;-58
2022/03/01 00:13:53;;;;;;;10.45;5.75;;;3.80;90.90;;;;;;5031964;28;20049;-58
2022/03/01 00:16:57;;;;;;;12.82;6.35;;;3.80;91.00;;;;;;5032361;28;20052;-59
2022/03/01 00:20:05;;;;;;;18.38;8.45;;;3.90;90.70;;;;;;5031705;28;20346;-59
2022/03/01 00:23:09;;;;;;;10.25;4.75;;;3.80;92.20;;;;;;5031901;28;20507;-58
2022/03/01 00:26:12;;;;;;;16.08;6.70;;;3.70;91.40;;;;;;5031352;28;20064;-58
2022/03/01 00:29:17;;;;;;;27.02;13.82;;;3.70;91.60;;;;;;5031622;28;20586;-60
2022/03/01 00:32:21;;;;;;;43.80;19.25;;;3.60;91.40;;;;;;5031042;28;20057;-59
2022/03/01 00:35:25;;;;;;;10.18;4.68;;;3.60;91.30;;;;;;5032629;28;20052;-59
2022/03/01 00:38:29;;;;;;;34.70;18.45;;;3.50;90.90;;;;;;5031149;28;20036;-60
2022/03/01 00:41:34;;;;;;;10.40;4.75;;;3.50;91.30;;;;;;5030811;28;20048;-60
2022/03/01 00:44:39;;;;;;;8.15;4.88;;;3.50;90.60;;;;;;5030539;28;20052;-59
2022/03/01 00:47:42;;;;;;;12.13;6.47;;;3.50;90.80;;;;;;5031172;28;20034;-59
2022/03/01 00:50:48;;;;;;;22.90;13.68;;;3.50;90.60;;;;;;5030693;28;20052;-60
2022/03/01 00:53:52;;;;;;;13.52;6.32;;;3.50;91.00;;;;;;5030995;28;20255;-59
2022/03/01 00:56:56;;;;;;;11.85;5.18;;;3.40;91.60;;;;;;5030775;28;20068;-59
2022/03/01 01:00:00;;;;;;;10.52;4.85;;;3.40;90.50;;;;;;5030894;28;20045;-59
2022/03/01 01:03:04;;;;;;;13.90;5.57;;;3.40;91.40;;;;;;5030935;28;20052;-60
2022/03/01 01:06:08;;;;;;;8.43;5.18;;;3.30;92.30;;;;;;5030961;28;20041;-59
2022/03/01 01:09:14;;;;;;;14.48;5.97;;;3.20;92.60;;;;;;5030106;28;20489;-60
2022/03/01 01:12:18;;;;;;;11.10;5.10;;;3.20;92.90;;;;;;5030382;28;20048;-60
2022/03/01 01:15:22;;;;;;;12.52;5.43;;;3.10;93.40;;;;;;5030537;28;20056;-60
2022/03/01 01:18:26;;;;;;;9.30;4.45;;;3.10;93.70;;;;;;5030536;28;20589;-60
2022/03/01 01:22:39;;;;;;;12.63;7.07;;;2.90;93.30;;;;;;5030455;28;20393;-59
2022/03/01 01:24:54;;;;;;;16.05;8.40;;;2.90;92.90;;;;;;5030617;28;20061;-59
2022/03/01 01:27:59;;;;;;;12.30;5.93;;;2.80;92.40;;;;;;5030723;28;20048;-60
2022/03/01 01:31:04;;;;;;;8.38;4.40;;;2.90;91.80;;;;;;5030279;28;20040;-60
2022/03/01 01:34:08;;;;;;;8.10;4.32;;;2.90;91.90;;;;;;5030878;28;20041;-59
2022/03/01 01:37:11;;;;;;;10.13;4.43;;;3.00;91.70;;;;;;5030725;28;20295;-58
2022/03/01 01:40:19;;;;;;;7.85;4.00;;;3.00;92.00;;;;;;5029706;28;20048;-60
2022/03/01 01:43:23;;;;;;;10.88;4.28;;;2.90;92.70;;;;;;5030104;28;20478;-60
2022/03/01 01:46:28;;;;;;;8.82;4.03;;;2.80;92.50;;;;;;5030192;28;20052;-60
2022/03/01 01:49:31;;;;;;;10.82;3.78;;;2.70;92.90;;;;;;5029862;28;20042;-59
2022/03/01 01:52:36;;;;;;;9.50;4.93;;;2.60;93.00;;;;;;5029853;28;20056;-59
2022/03/01 01:55:40;;;;;;;10.85;4.65;;;2.50;93.10;;;;;;5030843;28;20369;-60
2022/03/01 01:58:44;;;;;;;10.68;4.05;;;2.50;93.70;;;;;;5035970;28;20420;-60
2022/03/01 02:01:48;;;;;;;7.90;4.45;;;2.50;93.60;;;;;;5036243;28;20071;-60
2022/03/01 02:04:51;;;;;;;6.68;4.13;;;2.50;94.30;;;;;;5036559;28;20400;-59
2022/03/01 02:07:55;;;;;;;9.32;4.38;;;2.50;94.10;;;;;;5036547;28;20072;-59
2022/03/01 02:11:00;;;;;;;12.48;5.35;;;2.50;94.30;;;;;;5036289;28;20037;-58
2022/03/01 02:14:04;;;;;;;9.23;4.38;;;2.50;93.80;;;;;;5036561;28;20538;-59
2022/03/01 02:17:10;;;;;;;9.18;4.03;;;2.60;94.10;;;;;;5036239;28;20041;-59
2022/03/01 02:20:17;;;;;;;10.40;4.60;;;2.70;94.50;;;;;;5036539;28;20049;-60
2022/03/01 02:23:21;;;;;;;10.40;4.40;;;2.60;94.70;;;;;;5036475;28;20049;-60
2022/03/01 02:26:25;;;;;;;14.82;4.57;;;2.70;95.10;;;;;;5036334;28;20044;-60
2022/03/01 02:29:30;;;;;;;9.80;4.82;;;2.60;95.70;;;;;;5036181;28;20404;-59
2022/03/01 02:32:35;;;;;;;14.45;5.20;;;2.50;96.40;;;;;;5036055;28;20049;-59
2022/03/01 02:35:38;;;;;;;13.00;4.63;;;2.40;96.50;;;;;;5036352;28;20060;-59
2022/03/01 02:38:42;;;;;;;8.48;4.30;;;2.40;95.30;;;;;;5036221;28;20504;-60
2022/03/01 02:41:46;;;;;;;10.80;5.75;;;2.40;95.60;;;;;;5036347;28;20045;-60
2022/03/01 02:44:50;;;;;;;10.77;5.78;;;2.50;95.50;;;;;;5036199;28;20044;-59
2022/03/01 02:47:55;;;;;;;12.88;5.53;;;2.50;95.30;;;;;;5036475;28;20060;-60
2022/03/01 02:50:59;;;;;;;9.95;4.80;;;2.50;95.30;;;;;;5035434;28;20056;-59
2022/03/01 02:54:05;;;;;;;12.25;4.80;;;2.60;94.90;;;;;;5036148;28;20481;-58
2022/03/01 02:57:09;;;;;;;9.75;5.15;;;2.60;95.00;;;;;;5036338;28;20500;-59
2022/03/01 03:00:14;;;;;;;11.07;5.68;;;2.60;95.00;;;;;;5035799;28;20046;-59
2022/03/01 03:03:18;;;;;;;10.32;5.22;;;2.60;94.90;;;;;;5036097;28;20052;-61
2022/03/01 03:06:23;;;;;;;8.05;4.40;;;2.60;95.00;;;;;;5036308;28;20053;-58
2022/03/01 03:09:27;;;;;;;9.60;4.43;;;2.50;95.20;;;;;;5032406;28;20038;-59
2022/03/01 03:12:31;;;;;;;8.77;4.45;;;2.40;95.10;;;;;;5032409;28;20033;-59
2022/03/01 03:15:34;;;;;;;7.80;4.72;;;2.30;95.10;;;;;;5032593;28;20053;-59
2022/03/01 03:18:39;;;;;;;8.80;4.40;;;2.30;94.70;;;;;;5033144;28;20373;-60
2022/03/01 03:21:44;;;;;;;10.45;4.60;;;2.20;94.30;;;;;;5032093;28;20029;-59
2022/03/01 03:24:48;;;;;;;8.43;4.95;;;2.20;94.00;;;;;;5032485;28;20049;-59
2022/03/01 03:27:51;;;;;;;8.38;4.05;;;2.20;93.80;;;;;;5033413;28;20037;-59
2022/03/01 03:30:55;;;;;;;10.70;4.65;;;2.30;92.70;;;;;;5032089;28;20041;-59
2022/03/01 03:34:00;;;;;;;10.50;5.20;;;2.30;93.00;;;;;;5032549;28;20499;-61
2022/03/01 03:37:04;;;;;;;12.00;4.75;;;2.20;93.10;;;;;;5032548;28;20048;-59
2022/03/01 03:40:08;;;;;;;6.70;4.00;;;2.20;93.20;;;;;;5031901;28;20056;-59
2022/03/01 03:43:12;;;;;;;9.30;4.63;;;2.10;93.00;;;;;;5032450;28;20684;-59
2022/03/01 03:46:16;;;;;;;10.15;4.43;;;2.10;92.80;;;;;;5032105;28;20045;-59
2022/03/01 03:49:22;;;;;;;9.70;4.35;;;2.10;92.70;;;;;;5032246;28;20388;-60
2022/03/01 03:52:26;;;;;;;9.63;4.82;;;2.00;92.80;;;;;;5031108;28;20029;-60
2022/03/01 03:55:30;;;;;;;7.95;3.63;;;2.00;92.60;;;;;;5032162;28;20038;-60
2022/03/01 03:58:34;;;;;;;8.10;4.57;;;1.90;92.80;;;;;;5031969;28;20037;-59
2022/03/01 04:01:38;;;;;;;11.63;4.95;;;1.90;93.20;;;;;;5031202;28;20037;-59
2022/03/01 04:04:43;;;;;;;11.98;4.50;;;1.90;93.30;;;;;;5031854;28;20041;-62
2022/03/01 04:07:48;;;;;;;8.27;4.32;;;1.90;93.10;;;;;;5031974;28;20045;-60
2022/03/01 04:10:52;;;;;;;10.43;4.35;;;1.80;92.90;;;;;;5031147;28;20042;-60
2022/03/01 04:13:57;;;;;;;7.45;4.18;;;1.80;93.10;;;;;;5031628;28;20033;-59
2022/03/01 04:17:02;;;;;;;8.18;3.85;;;1.80;93.30;;;;;;5031322;28;20042;-60
2022/03/01 04:20:07;;;;;;;10.93;4.40;;;1.70;93.60;;;;;;5030377;28;20045;-59
2022/03/01 04:23:11;;;;;;;9.50;4.25;;;1.70;93.80;;;;;;5031685;28;20072;-60
2022/03/01 04:26:15;;;;;;;9.60;4.40;;;1.70;94.00;;;;;;5031370;28;20041;-60
2022/03/01 04:29:19;;;;;;;9.48;4.60;;;1.70;94.80;;;;;;5031405;28;20037;-60
2022/03/01 04:32:23;;;;;;;11.77;5.40;;;1.70;93.90;;;;;;5030866;28;20394;-60
2022/03/01 04:35:30;;;;;;;12.07;5.22;;;1.60;94.30;;;;;;5031613;28;20060;-60
2022/03/01 04:38:35;;;;;;;10.32;4.55;;;1.60;94.60;;;;;;5031396;28;20056;-60
2022/03/01 04:41:40;;;;;;;7.68;4.50;;;1.60;94.60;;;;;;5030838;28;20076;-59
2022/03/01 04:44:44;;;;;;;8.40;4.25;;;1.60;95.20;;;;;;5031383;28;20042;-59
2022/03/01 04:47:47;;;;;;;12.60;4.32;;;1.70;95.00;;;;;;5031162;28;20037;-60
2022/03/01 04:50:52;;;;;;;8.10;4.35;;;1.80;95.20;;;;;;5030663;28;20511;-59
2022/03/01 04:53:56;;;;;;;10.52;4.43;;;1.90;95.20;;;;;;5031566;28;20029;-60
2022/03/01 04:57:00;;;;;;;11.93;4.22;;;1.90;95.60;;;;;;5031576;28;20041;-60
2022/03/01 05:00:11;;;;;;;8.98;4.35;;;2.00;95.90;;;;;;5031456;28;20049;-59
2022/03/01 05:03:15;;;;;;;10.73;4.20;;;2.10;96.10;;;;;;5031153;28;20045;-60
2022/03/01 05:06:20;;;;;;;9.93;4.28;;;2.10;95.80;;;;;;5031038;28;20040;-61
2022/03/01 05:09:24;;;;;;;12.63;4.45;;;2.20;96.00;;;;;;5030735;28;20635;-60
2022/03/01 05:12:28;;;;;;;8.38;3.80;;;2.20;96.20;;;;;;5030416;28;20048;-60
2022/03/01 05:15:32;;;;;;;8.48;4.20;;;2.30;96.50;;;;;;5030936;28;20060;-60
2022/03/01 05:18:37;;;;;;;9.60;4.85;;;2.40;96.50;;;;;;5030104;28;20045;-60
2022/03/01 05:21:42;;;;;;;13.18;4.43;;;2.40;97.10;;;;;;5030451;28;20037;-60
2022/03/01 05:24:46;;;;;;;8.98;4.18;;;2.40;97.10;;;;;;5031305;28;20048;-59
2022/03/01 05:27:52;;;;;;;7.97;4.00;;;2.40;97.40;;;;;;5030584;28;20041;-60
2022/03/01 05:30:56;;;;;;;11.43;4.18;;;2.40;97.50;;;;;;5029601;28;20045;-60
2022/03/01 05:34:01;;;;;;;8.77;4.20;;;2.30;97.60;;;;;;5030524;28;20044;-60
2022/03/01 05:37:05;;;;;;;9.60;4.75;;;2.50;97.80;;;;;;5030435;28;20045;-60
2022/03/01 05:40:12;;;;;;;12.18;4.20;;;2.50;97.80;;;;;;5030401;28;20037;-60
2022/03/01 05:43:16;;;;;;;10.52;4.07;;;2.50;97.30;;;;;;5030271;28;20057;-60
2022/03/01 05:46:20;;;;;;;9.23;4.45;;;2.50;97.40;;;;;;5030334;28;20400;-60
2022/03/01 05:49:24;;;;;;;9.57;3.78;;;2.50;97.70;;;;;;5030243;28;20034;-60
2022/03/01 05:52:29;;;;;;;13.18;5.50;;;2.50;97.20;;;;;;5029767;28;20365;-60
2022/03/01 05:55:33;;;;;;;7.60;3.83;;;2.60;97.50;;;;;;5030699;28;20416;-60
2022/03/01 05:58:37;;;;;;;6.82;3.88;;;2.60;97.70;;;;;;5030663;28;20037;-60
2022/03/01 06:01:42;;;;;;;10.20;4.15;;;2.60;97.40;;;;;;5029968;28;20049;-60
2022/03/01 06:04:46;;;;;;;7.43;3.80;;;2.70;96.90;;;;;;5030281;28;20044;-60
2022/03/01 06:07:51;;;;;;;7.95;3.75;;;2.70;97.30;;;;;;5030945;28;20034;-60
2022/03/01 06:10:55;;;;;;;4.88;3.42;;;2.70;97.20;;;;;;5030356;28;20042;-60
2022/03/01 06:13:59;;;;;;;11.90;3.72;;;2.80;97.10;;;;;;5030917;28;20038;-60
2022/03/01 06:17:03;;;;;;;5.80;3.97;;;2.90;97.40;;;;;;5029731;28;20117;-61
2022/03/01 06:20:09;;;;;;;8.82;3.75;;;2.90;97.00;;;;;;5029706;28;20370;-60
2022/03/01 06:23:14;;;;;;;7.00;3.85;;;3.00;96.90;;;;;;5029961;28;20037;-60
2022/03/01 06:26:18;;;;;;;9.30;4.05;;;3.10;96.80;;;;;;5029651;28;20397;-61
2022/03/01 06:29:22;;;;;;;9.85;4.40;;;3.10;96.90;;;;;;5029843;28;20468;-61
2022/03/01 06:32:26;;;;;;;6.65;4.20;;;3.20;96.70;;;;;;5029826;28;20041;-60
2022/03/01 06:35:30;;;;;;;8.35;3.55;;;3.30;96.70;;;;;;5029915;28;20049;-60
2022/03/01 06:38:34;;;;;;;8.20;3.63;;;3.60;96.20;;;;;;5029923;28;20045;-60
2022/03/01 06:41:38;;;;;;;5.57;3.92;;;4.40;95.40;;;;;;5029413;28;20049;-61
2022/03/01 06:44:41;;;;;;;6.65;3.78;;;6.00;93.60;;;;;;5032668;28;20038;-61
2022/03/01 06:47:45;;;;;;;9.93;4.45;;;8.10;91.30;;;;;;5033575;28;20045;-60
2022/03/01 06:50:49;;;;;;;7.40;3.20;;;9.70;87.10;;;;;;5033661;28;20045;-62
2022/03/01 06:53:54;;;;;;;6.18;3.67;;;10.80;82.80;;;;;;5033722;28;20034;-61
2022/03/01 06:56:58;;;;;;;6.43;3.53;;;12.20;79.20;;;;;;5033543;28;20072;-61
2022/03/01 07:00:02;;;;;;;5.25;3.08;;;13.10;77.10;;;;;;5033089;28;20047;-61
2022/03/01 07:03:07;;;;;;;7.93;3.40;;;13.70;72.90;;;;;;5027528;28;20062;-61
2022/03/01 07:06:11;;;;;;;7.93;4.35;;;12.20;73.40;;;;;;5027769;28;20052;-60
2022/03/01 07:09:15;;;;;;;9.40;3.55;;;9.90;76.60;;;;;;5032003;28;20056;-61
2022/03/01 07:12:19;;;;;;;7.28;4.30;;;8.30;80.00;;;;;;5030942;28;20029;-61
2022/03/01 07:15:23;;;;;;;8.55;4.60;;;7.10;83.20;;;;;;5030872;28;20045;-61
2022/03/01 07:18:27;;;;;;;9.27;4.05;;;6.40;87.10;;;;;;5031019;28;20041;-60
2022/03/01 07:21:31;;;;;;;9.40;4.68;;;5.90;87.90;;;;;;5028392;28;20049;-61
2022/03/01 07:24:35;;;;;;;11.30;4.95;;;5.60;90.90;;;;;;5030025;28;20365;-61
2022/03/01 07:27:51;;;;;;;11.60;4.30;;;5.60;91.30;;;;;;5031734;28;20045;-60
2022/03/01 07:30:55;;;;;;;7.57;4.20;;;5.50;91.10;;;;;;5032421;28;20195;-61
2022/03/01 07:33:59;;;;;;;9.30;4.88;;;5.50;91.30;;;;;;5028184;28;20030;-60
2022/03/01 07:37:05;;;;;;;8.30;4.90;;;5.30;92.30;;;;;;5029091;28;20033;-61
2022/03/01 07:40:11;;;;;;;9.43;4.63;;;5.20;93.00;;;;;;5026701;28;20037;-60
2022/03/01 07:43:16;;;;;;;12.35;4.78;;;5.10;93.40;;;;;;5023330;28;20045;-60
2022/03/01 07:46:21;;;;;;;13.27;6.55;;;5.10;94.20;;;;;;5028105;28;20112;-61
2022/03/01 07:49:25;;;;;;;7.43;5.00;;;5.00;94.50;;;;;;5030033;28;20053;-61
2022/03/01 07:52:30;;;;;;;12.55;5.53;;;5.00;95.10;;;;;;5030567;28;20029;-60
2022/03/01 07:55:34;;;;;;;12.13;5.35;;;5.00;95.10;;;;;;5027703;28;20045;-61
2022/03/01 07:58:38;;;;;;;16.20;6.63;;;5.00;95.50;;;;;;5028892;28;20053;-62
2022/03/01 08:01:42;;;;;;;10.52;5.35;;;4.90;95.80;;;;;;5028549;28;20064;-61
2022/03/01 08:04:46;;;;;;;12.10;5.60;;;4.90;95.70;;;;;;5029227;28;20037;-60
2022/03/01 08:07:50;;;;;;;13.60;5.63;;;4.90;95.90;;;;;;5025659;28;20176;-60
2022/03/01 08:10:54;;;;;;;10.25;5.47;;;5.10;95.30;;;;;;5027468;28;20048;-61
2022/03/01 08:13:58;;;;;;;14.18;6.30;;;5.20;95.40;;;;;;5026943;28;20044;-61
2022/03/01 08:17:03;;;;;;;12.23;6.07;;;5.20;95.20;;;;;;5025968;28;20044;-61
2022/03/01 08:20:07;;;;;;;9.30;5.63;;;5.20;95.90;;;;;;5024299;28;20424;-60
2022/03/01 08:23:11;;;;;;;9.05;5.35;;;5.30;95.90;;;;;;5027232;28;20037;-61
2022/03/01 08:26:16;;;;;;;11.43;5.93;;;5.40;95.60;;;;;;5029080;28;20038;-61
2022/03/01 08:29:20;;;;;;;9.35;5.03;;;5.40;95.70;;;;;;5026475;28;20052;-61
2022/03/01 08:32:24;;;;;;;8.40;5.10;;;5.30;96.10;;;;;;5025495;28;20464;-61
2022/03/01 08:35:30;;;;;;;8.50;5.00;;;5.30;95.90;;;;;;5026072;28;20038;-60
2022/03/01 08:38:33;;;;;;;9.50;5.25;;;5.40;95.70;;;;;;5028830;28;20044;-62
2022/03/01 08:41:37;;;;;;;12.98;5.38;;;5.40;95.50;;;;;;5028151;28;20041;-61
2022/03/01 08:44:43;;;;;;;9.10;4.93;;;5.50;95.90;;;;;;5022506;28;20479;-61
2022/03/01 08:47:47;;;;;;;9.07;5.10;;;5.60;95.60;;;;;;5028736;28;20366;-60
2022/03/01 08:50:52;;;;;;;11.60;5.32;;;5.70;96.00;;;;;;5025115;28;20029;-60
2022/03/01 08:53:55;;;;;;;12.65;4.95;;;5.90;95.70;;;;;;5026132;28;20048;-61
2022/03/01 08:56:59;;;;;;;11.88;5.35;;;5.90;95.80;;;;;;5025273;28;20056;-68
2022/03/01 09:00:06;;;;;;;11.35;5.55;;;5.80;94.90;;;;;;5026767;28;20052;-68
2022/03/01 09:03:10;;;;;;;10.35;5.53;;;6.00;95.50;;;;;;5025950;28;20044;-68
2022/03/01 09:06:15;;;;;;;10.00;5.18;;;6.00;94.60;;;;;;5032716;28;20056;-67
2022/03/01 09:09:19;;;;;;;15.82;5.43;;;6.10;94.40;;;;;;5024369;28;20048;-68
2022/03/01 09:12:23;;;;;;;8.38;5.07;;;6.30;95.00;;;;;;5026115;28;20073;-68
2022/03/01 09:15:31;;;;;;;8.77;5.20;;;6.30;95.10;;;;;;5029111;28;20041;-68
2022/03/01 09:18:36;;;;;;;8.38;4.78;;;6.40;94.40;;;;;;5028096;28;20041;-68
2022/03/01 09:21:41;;;;;;;8.35;4.78;;;6.60;94.30;;;;;;5021554;28;20041;-68
2022/03/01 09:24:45;;;;;;;8.13;5.47;;;6.80;93.70;;;;;;5022782;28;20037;-68
2022/03/01 09:27:49;;;;;;;14.98;6.15;;;6.90;93.50;;;;;;5014239;28;20045;-68
2022/03/01 09:30:53;;;;;;;10.60;5.68;;;7.00;93.10;;;;;;5021614;28;20051;-68
2022/03/01 09:33:57;;;;;;;13.20;5.15;;;6.70;93.50;;;;;;5017610;28;20040;-68
2022/03/01 09:37:02;;;;;;;12.07;5.03;;;6.90;94.50;;;;;;5026097;28;20040;-68
2022/03/01 09:40:08;;;;;;;11.35;5.60;;;7.00;93.50;;;;;;5028549;28;20056;-68
2022/03/01 09:43:13;;;;;;;8.85;5.07;;;7.20;93.50;;;;;;5027147;28;20052;-68
2022/03/01 09:46:16;;;;;;;10.40;4.85;;;7.60;92.10;;;;;;5024247;28;20038;-68
2022/03/01 09:49:20;;;;;;;9.20;4.93;;;8.10;91.70;;;;;;5027559;28;20049;-68
2022/03/01 09:52:24;;;;;;;9.73;4.90;;;8.50;91.50;;;;;;5026110;28;20033;-68
2022/03/01 09:55:29;;;;;;;7.88;4.70;;;8.90;90.70;;;;;;5026622;28;20393;-68
2022/03/01 09:58:34;;;;;;;6.60;3.88;;;8.90;89.30;;;;;;5023621;28;20033;-68
2022/03/01 10:01:45;;;;;;;6.45;4.43;;;9.20;88.00;;;;;;5023399;28;20041;-69
2022/03/01 10:04:54;;;;;;;10.25;4.20;;;9.10;86.30;;;;;;5022974;28;20045;-68
2022/03/01 10:08:12;;;;;;;8.18;4.00;;;10.90;81.00;;;;;;5021940;28;20052;-69
2022/03/01 10:11:18;;;;;;;9.25;4.38;;;14.90;79.60;;;;;;5027642;28;20043;-69
2022/03/01 10:14:31;;;;;;;5.82;3.65;;;17.50;64.90;;;;;;5028419;28;20049;-69
2022/03/01 10:17:40;;;;;;;6.00;3.45;;;21.20;62.80;;;;;;5030789;28;20231;-66
2022/03/01 10:20:46;;;;;;;5.85;3.47;;;24.70;54.30;;;;;;5032385;28;20102;-67
2022/03/01 10:23:55;;;;;;;4.25;2.95;;;24.70;50.30;;;;;;5031921;28;20049;-67
2022/03/01 10:27:05;;;;;;;4.65;2.97;;;26.30;48.90;;;;;;5027903;28;20044;-68
2022/03/01 10:30:10;;;;;;;8.38;3.20;;;27.30;47.90;;;;;;5027647;28;20052;-68
2022/03/01 10:33:16;;;;;;;4.63;3.10;;;28.00;46.00;;;;;;5029719;28;20044;-67
2022/03/01 10:36:23;;;;;;;5.97;3.20;;;26.70;44.20;;;;;;5025600;28;20117;-68
2022/03/01 10:39:30;;;;;;;4.10;2.60;;;27.90;45.40;;;;;;5029063;28;20049;-68
2022/03/01 10:42:35;;;;;;;5.10;2.58;;;28.90;43.50;;;;;;5026708;28;20041;-67
2022/03/01 10:45:46;;;;;;;4.30;2.72;;;29.00;43.40;;;;;;5030622;28;20048;-68
2022/03/01 10:49:13;;;;;;;6.47;2.83;;;28.80;43.70;;;;;;5027345;28;20056;-66
2022/03/01 10:52:19;;;;;;;5.93;3.60;;;27.50;42.10;;;;;;5028635;28;20052;-66
2022/03/01 10:55:43;;;;;;;4.57;3.60;;;25.10;44.40;;;;;;5028699;28;20503;-67
2022/03/01 10:58:48;;;;;;;7.53;3.45;;;24.00;44.90;;;;;;5027545;28;20045;-67
2022/03/01 11:01:53;;;;;;;4.75;3.03;;;24.70;44.40;;;;;;5026836;28;20048;-67
2022/03/01 11:04:57;;;;;;;5.90;3.67;;;26.90;43.60;;;;;;5032267;28;20492;-66
2022/03/01 11:08:04;;;;;;;6.65;3.40;;;26.40;42.70;;;;;;5021402;28;20120;-66
2022/03/01 11:11:10;;;;;;;5.60;3.40;;;22.70;43.50;;;;;;5027734;28;20056;-67
2022/03/01 11:14:18;;;;;;;4.75;3.35;;;22.40;46.40;;;;;;5028454;28;20384;-67
2022/03/01 11:17:55;;;;;;;6.15;3.70;;;22.90;44.10;;;;;;5032323;28;20973;-67
2022/03/01 11:21:02;;;;;;;6.15;3.38;;;22.70;45.10;;;;;;5025173;28;20040;-67
2022/03/01 11:24:09;;;;;;;5.25;3.10;;;19.80;45.70;;;;;;5028529;28;20807;-66
2022/03/01 11:27:22;;;;;;;4.72;3.30;;;20.60;46.90;;;;;;5030605;28;20499;-67
2022/03/01 11:30:34;;;;;;;6.10;3.88;;;22.20;46.90;;;;;;5030251;28;20440;-67
2022/03/01 11:33:41;;;;;;;5.63;3.30;;;25.30;44.70;;;;;;5024258;28;20040;-68
2022/03/01 11:36:52;;;;;;;4.60;3.15;;;24.10;44.30;;;;;;5027668;28;20045;-68
2022/03/01 11:39:59;;;;;;;6.50;4.27;;;24.10;45.50;;;;;;5019969;28;20049;-68
2022/03/01 11:43:20;;;;;;;7.85;3.42;;;24.70;44.70;;;;;;5026562;28;20044;-67
2022/03/01 11:46:24;;;;;;;5.65;3.30;;;24.20;44.50;;;;;;5027316;28;20052;-68
2022/03/01 11:49:37;;;;;;;6.47;3.42;;;23.20;45.10;;;;;;5022254;28;20425;-68
2022/03/01 11:52:53;;;;;;;6.57;3.58;;;22.10;45.60;;;;;;5024194;28;20044;-68
2022/03/01 11:55:58;;;;;;;6.18;3.42;;;19.70;47.20;;;;;;5027283;28;20048;-68
2022/03/01 11:59:05;;;;;;;7.55;4.07;;;17.30;50.20;;;;;;5028018;28;20048;-68
2022/03/01 12:02:10;;;;;;;5.18;3.78;;;16.70;50.40;;;;;;5023598;28;20396;-68
2022/03/01 12:05:25;;;;;;;5.45;3.40;;;18.40;49.50;;;;;;5027369;28;20056;-68
2022/03/01 12:08:29;;;;;;;5.63;3.55;;;21.40;47.70;;;;;;5023592;28;20048;-68
2022/03/01 12:11:42;;;;;;;4.78;3.03;;;21.80;45.30;;;;;;5022122;28;20044;-67
2022/03/01 12:14:54;;;;;;;4.22;3.33;;;23.50;44.10;;;;;;5027950;28;20048;-68
2022/03/01 12:18:09;;;;;;;5.25;3.47;;;22.90;43.50;;;;;;5026224;28;20397;-68
2022/03/01 12:21:14;;;;;;;7.80;3.55;;;22.90;44.70;;;;;;5026376;28;20041;-68
2022/03/01 12:24:19;;;;;;;4.88;3.75;;;23.00;44.90;;;;;;5029615;28;20037;-68
2022/03/01 12:27:29;;;;;;;3.60;2.92;;;24.50;44.50;;;;;;5026369;28;20048;-68
2022/03/01 12:30:39;;;;;;;5.32;3.80;;;25.90;43.20;;;;;;5027420;28;20686;-69
2022/03/01 12:33:52;;;;;;;5.13;3.40;;;26.10;43.50;;;;;;5026438;28;20056;-68
2022/03/01 12:36:59;;;;;;;7.68;3.50;;;26.10;43.20;;;;;;5027596;28;20041;-68
2022/03/01 12:40:04;;;;;;;5.03;3.50;;;22.90;43.00;;;;;;5027554;28;20045;-68
2022/03/01 12:43:10;;;;;;;6.95;3.80;;;22.70;43.90;;;;;;5023909;28;20112;-69
2022/03/01 12:46:15;;;;;;;5.82;3.70;;;24.30;42.40;;;;;;5025888;28;20049;-68
2022/03/01 12:49:19;;;;;;;6.88;3.85;;;23.70;42.40;;;;;;5026995;28;20048;-68
2022/03/01 12:52:24;;;;;;;8.60;4.63;;;21.60;44.20;;;;;;5022691;28;20044;-68
2022/03/01 12:55:29;;;;;;;8.90;5.40;;;21.70;43.30;;;;;;5029235;28;20407;-67
2022/03/01 12:58:34;;;;;;;6.03;4.40;;;22.00;45.50;;;;;;5028671;28;20040;-69
2022/03/01 13:01:46;;;;;;;5.15;4.00;;;22.70;44.30;;;;;;5024091;28;20040;-68
2022/03/01 13:04:54;;;;;;;9.63;4.05;;;23.20;44.20;;;;;;5023987;28;20052;-69
2022/03/01 13:07:58;;;;;;;5.43;4.13;;;20.20;47.50;;;;;;5027820;28;20040;-68
2022/03/01 13:11:04;;;;;;;6.18;4.20;;;21.30;46.40;;;;;;5028712;28;20045;-68
2022/03/01 13:14:21;;;;;;;6.57;4.30;;;22.10;44.10;;;;;;5022640;28;20052;-68
2022/03/01 13:17:25;;;;;;;8.48;4.70;;;21.60;45.60;;;;;;5024257;28;20503;-68
2022/03/01 13:20:31;;;;;;;5.30;3.85;;;20.50;47.90;;;;;;5029100;28;20048;-68
2022/03/01 13:23:35;;;;;;;11.18;4.60;;;20.60;48.50;;;;;;5026548;28;20475;-68
2022/03/01 13:26:39;;;;;;;7.60;4.10;;;22.20;46.20;;;;;;5022683;28;20049;-68
2022/03/01 13:29:44;;;;;;;7.90;3.72;;;22.60;45.80;;;;;;5028524;28;20503;-68
2022/03/01 13:32:48;;;;;;;5.55;3.80;;;23.30;44.80;;;;;;5024393;28;20048;-68
2022/03/01 13:35:52;;;;;;;5.53;3.50;;;22.70;45.80;;;;;;5026064;28;20048;-69
2022/03/01 13:39:09;;;;;;;6.20;3.50;;;22.80;44.70;;;;;;5024559;28;20053;-68
2022/03/01 13:42:16;;;;;;;6.30;3.75;;;22.50;44.70;;;;;;5021210;28;20048;-68
2022/03/01 13:45:21;;;;;;;6.28;3.97;;;22.80;43.70;;;;;;5020500;28;20040;-68
2022/03/01 13:48:28;;;;;;;6.82;4.10;;;22.40;44.00;;;;;;5029882;28;20044;-68
2022/03/01 13:51:32;;;;;;;4.68;3.78;;;22.00;45.50;;;;;;5027477;28;20222;-68
2022/03/01 13:54:38;;;;;;;7.63;3.75;;;22.30;45.00;;;;;;5028807;28;20040;-68
2022/03/01 13:57:56;;;;;;;7.10;3.35;;;22.30;45.00;;;;;;5028674;28;20044;-68
2022/03/01 14:01:06;;;;;;;3.42;2.88;;;22.40;45.30;;;;;;5024682;28;20041;-68
2022/03/01 14:04:11;;;;;;;7.75;3.40;;;22.60;44.80;;;;;;5028900;28;20397;-68
2022/03/01 14:07:23;;;;;;;5.60;3.60;;;22.00;45.90;;;;;;5018645;28;20044;-68
2022/03/01 14:10:35;;;;;;;5.72;3.38;;;22.10;45.70;;;;;;5016818;28;20045;-68
2022/03/01 14:13:44;;;;;;;6.17;3.53;;;21.80;46.30;;;;;;5021596;28;20045;-68
2022/03/01 14:16:48;;;;;;;5.57;3.30;;;21.60;46.20;;;;;;5020878;28;20342;-68
2022/03/01 14:19:54;;;;;;;7.07;3.17;;;20.80;46.60;;;;;;5026138;28;20036;-67
2022/03/01 14:22:57;;;;;;;4.25;3.03;;;20.50;46.50;;;;;;5028965;28;20472;-68
2022/03/01 14:26:02;;;;;;;4.68;2.92;;;20.80;46.50;;;;;;5017965;28;20053;-68
2022/03/01 14:29:13;;;;;;;6.35;2.97;;;20.90;46.80;;;;;;5019165;28;20048;-68
2022/03/01 14:32:18;;;;;;;;;;;20.40;46.80;;;;;;5020497;28;20053;-68
2022/03/01 14:35:23;;;;;;;4.97;2.40;;;20.20;47.10;;;;;;5023934;28;19932;-68
2022/03/01 14:38:27;;;;;;;4.47;2.80;;;19.90;47.00;;;;;;5027434;28;20040;-68
2022/03/01 14:41:31;;;;;;;4.60;2.75;;;19.70;47.10;;;;;;5028700;28;20044;-68
2022/03/01 14:44:35;;;;;;;7.88;3.13;;;19.10;46.90;;;;;;5010369;28;20049;-68
2022/03/01 14:47:39;;;;;;;4.95;3.15;;;18.30;48.30;;;;;;5023640;28;20389;-68
2022/03/01 14:50:44;;;;;;;4.25;3.00;;;17.90;48.80;;;;;;5017255;28;20041;-68
2022/03/01 14:53:47;;;;;;;5.22;2.92;;;17.70;48.50;;;;;;5026748;28;20400;-68
2022/03/01 14:56:51;;;;;;;4.05;2.58;;;17.60;49.00;;;;;;5015952;28;20072;-68
2022/03/01 14:59:56;;;;;;;5.88;3.10;;;17.50;49.70;;;;;;5021919;28;20045;-68
2022/03/01 15:03:02;;;;;;;4.40;3.22;;;17.30;49.10;;;;;;5022502;28;20408;-68
2022/03/01 15:06:08;;;;;;;11.00;3.80;;;16.70;49.90;;;;;;5014042;28;20048;-67
2022/03/01 15:09:12;;;;;;;8.25;3.03;;;16.50;50.00;;;;;;5032170;28;20040;-68
2022/03/01 15:12:15;;;;;;;5.82;2.60;;;16.40;49.90;;;;;;5032376;28;20036;-67
2022/03/01 15:15:20;;;;;;;6.63;3.10;;;16.30;49.90;;;;;;5032201;28;20499;-68
2022/03/01 15:18:24;;;;;;;4.18;2.97;;;16.20;50.10;;;;;;5032026;28;20060;-67
2022/03/01 15:21:28;;;;;;;5.47;3.40;;;15.70;50.50;;;;;;5031917;28;20040;-67
2022/03/01 15:24:32;;;;;;;7.00;2.72;;;15.40;49.90;;;;;;5032078;28;20037;-67
2022/03/01 15:27:37;;;;;;;3.40;2.95;;;15.00;50.80;;;;;;5032029;28;20037;-67
2022/03/01 15:30:42;;;;;;;5.38;3.28;;;14.90;50.80;;;;;;5027824;28;20048;-67
2022/03/01 15:33:47;;;;;;;4.97;2.80;;;14.70;51.30;;;;;;5033330;28;20052;-67
2022/03/01 15:36:52;;;;;;;5.57;3.28;;;14.50;51.20;;;;;;5030179;28;20369;-67
2022/03/01 15:39:56;;;;;;;6.65;3.30;;;14.20;52.00;;;;;;5032589;28;20440;-67
2022/03/01 15:43:01;;;;;;;7.18;3.55;;;13.70;53.00;;;;;;5032510;28;20044;-66
2022/03/01 15:46:05;;;;;;;7.63;3.83;;;13.30;52.00;;;;;;5032517;28;20496;-68
2022/03/01 15:49:11;;;;;;;6.68;3.17;;;13.30;53.50;;;;;;5027149;28;20045;-68
2022/03/01 15:52:15;;;;;;;5.30;3.10;;;13.10;53.40;;;;;;5031131;28;20044;-67
2022/03/01 15:55:19;;;;;;;6.35;3.33;;;12.90;53.60;;;;;;5031193;28;20053;-67
2022/03/01 15:58:23;;;;;;;4.85;3.17;;;12.70;53.60;;;;;;5027714;28;20099;-68
2022/03/01 16:01:28;;;;;;;7.57;3.72;;;12.30;54.50;;;;;;5028339;28;20045;-67
2022/03/01 16:04:33;;;;;;;5.85;3.80;;;12.00;54.30;;;;;;5027195;28;20060;-67
2022/03/01 16:07:37;;;;;;;5.93;3.58;;;11.60;55.20;;;;;;5016472;28;20121;-67
2022/03/01 16:10:42;;;;;;;4.75;3.35;;;11.40;55.80;;;;;;5029496;28;20049;-67